createdAt,value
2018-07-21T00:01:25.371Z,8.10
2018-07-21T00:03:53.663Z,7.60
2018-07-21T00:06:21.801Z,7.67
2018-07-21T00:08:49.939Z,8.47
2018-07-21T00:11:17.845Z,7.13
2018-07-21T00:13:45.968Z,7.40
2018-07-21T00:16:14.115Z,7.37
2018-07-21T00:18:42.250Z,8.00
2018-07-21T00:21:10.395Z,7.47
2018-07-21T00:23:38.291Z,7.77
2018-07-21T00:26:06.447Z,7.67
2018-07-21T00:28:34.614Z,7.30
2018-07-21T00:31:02.771Z,7.67
2018-07-21T00:33:30.906Z,7.63
2018-07-21T00:35:59.038Z,7.37
2018-07-21T00:38:27.175Z,9.03
2018-07-21T00:40:55.320Z,9.57
2018-07-21T00:43:23.458Z,9.80
2018-07-21T00:45:51.363Z,8.00
2018-07-21T00:48:19.494Z,8.23
2018-07-21T00:50:47.432Z,8.23
2018-07-21T00:53:15.584Z,8.03
2018-07-21T00:55:43.715Z,8.50
2018-07-21T00:58:11.895Z,7.37
2018-07-21T01:00:40.049Z,7.13
2018-07-21T01:03:07.970Z,7.93
2018-07-21T01:05:36.109Z,7.97
2018-07-21T01:08:04.264Z,8.30
2018-07-21T01:10:32.222Z,7.47
2018-07-21T01:13:00.387Z,8.03
2018-07-21T01:15:28.507Z,7.87
2018-07-21T01:17:56.663Z,8.03
2018-07-21T01:20:24.555Z,7.70
2018-07-21T01:22:52.710Z,7.40
2018-07-21T01:25:20.855Z,7.93
2018-07-21T01:27:48.762Z,7.40
2018-07-21T01:30:16.887Z,7.37
2018-07-21T01:32:45.015Z,6.90
2018-07-21T01:35:13.166Z,7.60
2018-07-21T01:37:41.312Z,7.30
2018-07-21T01:40:09.442Z,7.90
2018-07-21T01:42:37.603Z,6.93
2018-07-21T01:45:05.895Z,7.10
2018-07-21T01:47:34.043Z,7.50
2018-07-21T01:50:02.192Z,7.93
2018-07-21T01:52:30.090Z,7.43
2018-07-21T01:54:58.221Z,7.10
2018-07-21T01:57:26.363Z,7.37
2018-07-21T01:59:54.490Z,7.60
2018-07-21T02:02:22.627Z,7.00
2018-07-21T02:04:50.895Z,6.67
2018-07-21T02:07:19.138Z,7.53
2018-07-21T02:09:47.347Z,7.53
2018-07-21T02:12:15.634Z,7.97
2018-07-21T02:14:43.771Z,7.73
2018-07-21T02:17:11.911Z,7.20
2018-07-21T02:19:40.043Z,7.10
2018-07-21T02:22:08.187Z,6.73
2018-07-21T02:24:36.331Z,7.03
2018-07-21T02:27:04.505Z,7.47
2018-07-21T02:29:32.626Z,7.73
2018-07-21T02:32:00.772Z,7.77
2018-07-21T02:34:28.893Z,7.23
2018-07-21T02:36:57.019Z,7.20
2018-07-21T02:39:25.188Z,6.93
2018-07-21T02:41:53.320Z,7.00
2018-07-21T02:44:22.127Z,7.47
2018-07-21T02:46:50.281Z,7.30
2018-07-21T02:49:18.179Z,7.07
2018-07-21T02:51:46.318Z,7.53
2018-07-21T02:54:14.281Z,6.90
2018-07-21T02:56:42.174Z,6.77
2018-07-21T02:59:10.332Z,6.93
2018-07-21T03:01:38.214Z,7.40
2018-07-21T03:04:06.396Z,7.00
2018-07-21T03:06:34.518Z,6.70
2018-07-21T03:09:02.695Z,6.83
2018-07-21T03:11:30.824Z,7.10
2018-07-21T03:13:58.954Z,6.77
2018-07-21T03:16:27.079Z,6.77
2018-07-21T03:18:55.207Z,6.80
2018-07-21T03:21:23.350Z,6.53
2018-07-21T03:23:51.547Z,7.03
2018-07-21T03:26:19.645Z,6.57
2018-07-21T03:28:47.786Z,6.50
2018-07-21T03:31:15.911Z,7.00
2018-07-21T03:33:44.131Z,7.17
2018-07-21T03:36:12.283Z,7.03
2018-07-21T03:38:40.408Z,6.83
2018-07-21T03:41:08.540Z,6.10
2018-07-21T03:43:36.675Z,6.80
2018-07-21T03:46:04.961Z,6.43
2018-07-21T03:48:33.096Z,6.50
2018-07-21T03:51:00.992Z,6.37
2018-07-21T03:53:29.138Z,6.73
2018-07-21T03:55:57.266Z,6.40
2018-07-21T03:58:25.517Z,6.83
2018-07-21T04:00:53.620Z,6.43
2018-07-21T04:03:21.756Z,6.53
2018-07-21T04:05:49.903Z,7.20
2018-07-21T04:08:17.805Z,6.77
2018-07-21T04:10:45.940Z,7.53
2018-07-21T04:13:13.901Z,6.80
2018-07-21T04:15:42.015Z,6.90
2018-07-21T04:18:10.162Z,6.83
2018-07-21T04:20:38.287Z,6.87
2018-07-21T04:23:06.467Z,7.40
2018-07-21T04:25:34.590Z,7.00
2018-07-21T04:28:02.722Z,6.83
2018-07-21T04:30:30.866Z,6.93
2018-07-21T04:32:58.990Z,6.93
2018-07-21T04:35:26.958Z,6.23
2018-07-21T04:37:54.899Z,6.37
2018-07-21T04:40:23.032Z,6.63
2018-07-21T04:42:51.162Z,6.50
2018-07-21T04:45:19.177Z,6.77
2018-07-21T04:47:47.277Z,6.33
2018-07-21T04:50:15.399Z,6.50
2018-07-21T04:52:43.558Z,6.70
2018-07-21T04:55:11.539Z,7.03
2018-07-21T04:57:39.679Z,6.53
2018-07-21T05:00:08.056Z,6.43
2018-07-21T05:02:36.220Z,7.50
2018-07-21T05:05:04.401Z,7.50
2018-07-21T05:07:32.588Z,7.37
2018-07-21T05:10:00.667Z,7.77
2018-07-21T05:12:28.554Z,7.33
2018-07-21T05:14:56.700Z,7.33
2018-07-21T05:17:24.843Z,8.43
2018-07-21T05:19:53.006Z,7.80
2018-07-21T05:22:21.141Z,8.47
2018-07-21T05:24:49.288Z,7.90
2018-07-21T05:27:17.430Z,8.33
2018-07-21T05:29:45.575Z,8.87
2018-07-21T05:32:13.706Z,8.00
2018-07-21T05:34:41.843Z,8.07
2018-07-21T05:37:09.969Z,7.90
2018-07-21T05:39:37.887Z,7.97
2018-07-21T05:42:06.032Z,8.07
2018-07-21T05:44:34.182Z,8.20
2018-07-21T05:47:02.232Z,8.37
2018-07-21T05:49:30.365Z,8.00
2018-07-21T05:51:58.669Z,8.33
2018-07-21T05:54:26.825Z,7.87
2018-07-21T05:56:54.979Z,7.80
2018-07-21T05:59:23.121Z,8.17
2018-07-21T06:01:51.060Z,7.80
2018-07-21T06:04:19.206Z,8.17
2018-07-21T06:06:47.316Z,8.13
2018-07-21T06:09:15.466Z,8.37
2018-07-21T06:11:43.603Z,7.63
2018-07-21T06:14:12.041Z,7.87
2018-07-21T06:16:40.200Z,7.37
2018-07-21T06:19:08.371Z,7.00
2018-07-21T06:21:36.502Z,7.23
2018-07-21T06:24:04.747Z,7.20
2018-07-21T06:26:32.708Z,7.50
2018-07-21T06:29:00.859Z,7.70
2018-07-21T06:31:29.005Z,7.40
2018-07-21T06:33:57.122Z,6.93
2018-07-21T06:36:25.254Z,8.20
2018-07-21T06:38:53.411Z,7.30
2018-07-21T06:41:21.542Z,6.83
2018-07-21T06:43:49.700Z,6.57
2018-07-21T06:46:17.811Z,7.30
2018-07-21T06:48:45.714Z,7.70
2018-07-21T06:51:13.850Z,7.87
2018-07-21T06:53:42.096Z,8.33
2018-07-21T06:56:10.240Z,7.87
2018-07-21T06:58:38.916Z,7.97
2018-07-21T07:01:07.332Z,8.00
2018-07-21T07:03:35.458Z,7.67
2018-07-21T07:06:03.714Z,7.80
2018-07-21T07:08:31.863Z,7.50
2018-07-21T07:11:00.032Z,8.40
2018-07-21T07:13:28.180Z,9.03
2018-07-21T07:15:56.335Z,7.83
2018-07-21T07:18:24.446Z,7.20
2018-07-21T07:20:52.590Z,8.50
2018-07-21T07:23:20.735Z,8.43
2018-07-21T07:25:49.077Z,8.53
2018-07-21T07:28:17.214Z,8.97
2018-07-21T07:30:45.339Z,8.67
2018-07-21T07:33:13.470Z,8.03
2018-07-21T07:35:41.632Z,8.17
2018-07-21T07:38:09.775Z,9.90
2018-07-21T07:40:37.907Z,9.67
2018-07-21T07:43:06.497Z,8.37
2018-07-21T07:45:34.659Z,11.17
2018-07-21T07:48:02.818Z,9.73
2018-07-21T07:50:30.995Z,9.43
2018-07-21T07:52:59.557Z,8.53
2018-07-21T07:55:32.078Z,8.83
2018-07-21T07:58:01.363Z,9.50
2018-07-21T08:00:29.889Z,9.17
2018-07-21T08:02:58.638Z,10.23
2018-07-21T08:05:26.923Z,9.57
2018-07-21T08:07:55.182Z,9.63
2018-07-21T08:10:23.343Z,9.57
2018-07-21T08:12:52.759Z,9.90
2018-07-21T08:15:21.455Z,9.93
2018-07-21T08:17:49.926Z,9.90
2018-07-21T08:20:18.218Z,10.40
2018-07-21T08:22:46.374Z,11.30
2018-07-21T08:25:14.503Z,10.27
2018-07-21T08:27:42.840Z,12.50
2018-07-21T08:30:11.933Z,11.53
2018-07-21T08:32:40.938Z,10.80
2018-07-21T08:35:08.894Z,8.87
2018-07-21T08:37:37.883Z,12.50
2018-07-21T08:40:07.093Z,10.00
2018-07-21T08:42:35.260Z,11.33
2018-07-21T08:45:03.628Z,10.80
2018-07-21T08:47:31.770Z,12.50
2018-07-21T08:49:59.902Z,10.97
2018-07-21T08:52:27.857Z,11.20
2018-07-21T08:54:55.984Z,11.30
2018-07-21T08:57:24.159Z,11.13
2018-07-21T08:59:52.302Z,11.23
2018-07-21T09:02:20.459Z,11.70
2018-07-21T09:04:48.586Z,11.03
2018-07-21T09:07:16.736Z,12.57
2018-07-21T09:09:45.314Z,11.07
2018-07-21T09:12:13.479Z,12.23
2018-07-21T09:14:41.616Z,14.10
2018-07-21T09:17:09.793Z,12.13
2018-07-21T09:19:37.929Z,10.50
2018-07-21T09:22:06.110Z,13.63
2018-07-21T09:24:34.259Z,13.30
2018-07-21T09:27:02.388Z,12.40
2018-07-21T09:29:30.507Z,13.13
2018-07-21T09:31:58.642Z,13.40
2018-07-21T09:34:26.603Z,11.73
2018-07-21T09:36:54.738Z,13.93
2018-07-21T09:39:22.866Z,12.23
2018-07-21T09:41:50.764Z,12.50
2018-07-21T09:44:18.926Z,11.97
2018-07-21T09:46:47.075Z,13.37
2018-07-21T09:49:15.243Z,14.70
2018-07-21T09:51:43.358Z,13.30
2018-07-21T09:54:11.498Z,13.47
2018-07-21T09:56:39.395Z,11.53
2018-07-21T09:59:07.543Z,11.73
2018-07-21T10:01:35.707Z,15.37
2018-07-21T10:04:03.867Z,12.63
2018-07-21T10:06:32.026Z,11.97
2018-07-21T10:09:00.167Z,14.07
2018-07-21T10:11:28.310Z,13.43
2018-07-21T10:13:56.435Z,13.90
2018-07-21T10:16:24.630Z,12.10
2018-07-21T10:18:52.775Z,11.73
2018-07-21T10:21:20.911Z,13.10
2018-07-21T10:23:49.053Z,12.70
2018-07-21T10:26:22.661Z,11.00
2018-07-21T10:28:56.195Z,12.97
2018-07-21T10:31:24.334Z,12.43
2018-07-21T10:33:52.296Z,10.77
2018-07-21T10:36:20.427Z,11.67
2018-07-21T10:38:48.562Z,11.10
2018-07-21T10:41:16.702Z,10.77
2018-07-21T10:43:44.849Z,9.70
2018-07-21T10:46:12.958Z,11.73
2018-07-21T10:48:41.101Z,13.37
2018-07-21T10:51:09.219Z,11.30
2018-07-21T10:53:37.168Z,10.93
2018-07-21T10:56:05.300Z,10.40
2018-07-21T10:58:33.464Z,10.03
2018-07-21T11:01:01.583Z,10.00
2018-07-21T11:03:29.716Z,9.00
2018-07-21T11:05:57.847Z,10.97
2018-07-21T11:08:25.811Z,9.80
2018-07-21T11:10:53.763Z,10.60
2018-07-21T11:13:21.906Z,9.00
2018-07-21T11:15:50.036Z,10.93
2018-07-21T11:18:18.506Z,10.30
2018-07-21T11:20:46.549Z,10.03
2018-07-21T11:23:14.711Z,9.00
2018-07-21T11:25:42.860Z,9.07
2018-07-21T11:28:11.006Z,10.63
2018-07-21T11:30:38.958Z,11.80
2018-07-21T11:33:06.862Z,11.60
2018-07-21T11:35:35.159Z,10.27
2018-07-21T11:38:03.134Z,8.83
2018-07-21T11:40:31.261Z,10.00
2018-07-21T11:42:59.431Z,9.77
2018-07-21T11:45:27.551Z,8.87
2018-07-21T11:47:55.696Z,10.03
2018-07-21T11:50:23.855Z,9.90
2018-07-21T11:52:51.991Z,9.53
2018-07-21T11:55:20.183Z,9.97
2018-07-21T11:57:48.079Z,9.97
2018-07-21T12:00:16.228Z,9.37
2018-07-21T12:02:44.190Z,8.67
2018-07-21T12:05:12.074Z,8.90
2018-07-21T12:07:40.199Z,8.57
2018-07-21T12:10:08.352Z,8.43
2018-07-21T12:12:36.600Z,9.50
2018-07-21T12:15:04.871Z,9.77
2018-07-21T12:17:33.102Z,10.47
2018-07-21T12:20:01.251Z,10.13
2018-07-21T12:22:29.398Z,11.47
2018-07-21T12:24:57.546Z,10.30
2018-07-21T12:27:25.441Z,9.93
2018-07-21T12:29:53.586Z,9.93
2018-07-21T12:32:21.534Z,11.33
2018-07-21T12:34:49.708Z,8.63
2018-07-21T12:37:17.818Z,9.93
2018-07-21T12:39:45.968Z,10.90
2018-07-21T12:42:13.981Z,9.77
2018-07-21T12:44:42.107Z,8.83
2018-07-21T12:47:10.277Z,8.80
2018-07-21T12:49:38.351Z,8.60
2018-07-21T12:52:06.506Z,8.87
2018-07-21T12:54:34.650Z,8.33
2018-07-21T12:57:02.774Z,9.07
2018-07-21T12:59:30.735Z,9.00
2018-07-21T13:01:58.682Z,9.70
2018-07-21T13:04:26.819Z,8.87
2018-07-21T13:06:54.947Z,8.80
2018-07-21T13:09:22.903Z,8.33
2018-07-21T13:11:51.033Z,8.60
2018-07-21T13:14:19.174Z,9.83
2018-07-21T13:16:47.307Z,8.90
2018-07-21T13:19:15.457Z,9.00
2018-07-21T13:21:43.582Z,8.93
2018-07-21T13:24:11.718Z,10.43
2018-07-21T13:26:39.883Z,8.63
2018-07-21T13:29:08.030Z,9.87
2018-07-21T13:31:36.154Z,8.33
2018-07-21T13:34:04.303Z,9.73
2018-07-21T13:36:32.439Z,8.40
2018-07-21T13:39:00.584Z,8.90
2018-07-21T13:41:28.542Z,11.20
2018-07-21T13:43:56.765Z,8.27
2018-07-21T13:46:24.866Z,9.93
2018-07-21T13:48:53.007Z,7.70
2018-07-21T13:51:21.140Z,8.73
2018-07-21T13:53:49.100Z,9.70
2018-07-21T13:56:17.168Z,10.00
2018-07-21T13:58:45.315Z,8.70
2018-07-21T14:01:13.446Z,9.10
2018-07-21T14:03:41.571Z,8.00
2018-07-21T14:06:09.706Z,8.13
2018-07-21T14:08:37.927Z,8.93
2018-07-21T14:11:06.159Z,8.25
2018-07-21T14:13:34.276Z,8.40
2018-07-21T14:16:02.395Z,8.50
2018-07-21T14:18:30.529Z,8.17
2018-07-21T14:20:58.674Z,7.47
2018-07-21T14:23:26.815Z,7.72
2018-07-21T14:25:54.987Z,7.77
2018-07-21T14:28:23.075Z,8.63
2018-07-21T14:30:51.248Z,8.83
2018-07-21T14:33:19.362Z,8.47
2018-07-21T14:35:47.349Z,7.70
2018-07-21T14:38:15.403Z,8.27
2018-07-21T14:40:43.307Z,8.67
2018-07-21T14:43:11.419Z,8.20
2018-07-21T14:45:39.558Z,8.30
2018-07-21T14:48:07.873Z,8.17
2018-07-21T14:50:36.019Z,6.97
2018-07-21T14:53:04.159Z,6.03
2018-07-21T14:55:32.294Z,5.60
2018-07-21T14:58:00.417Z,5.70
2018-07-21T15:00:28.590Z,5.37
2018-07-21T15:02:56.715Z,5.27
2018-07-21T15:05:24.649Z,5.17
2018-07-21T15:07:52.759Z,5.47
2018-07-21T15:10:20.709Z,7.37
2018-07-21T15:12:48.848Z,7.40
2018-07-21T15:15:16.986Z,8.53
2018-07-21T15:17:45.125Z,7.60
2018-07-21T15:20:13.252Z,7.67
2018-07-21T15:22:41.395Z,7.87
2018-07-21T15:25:09.301Z,7.90
2018-07-21T15:27:37.426Z,8.10
2018-07-21T15:30:05.404Z,8.37
2018-07-21T15:32:33.296Z,8.47
2018-07-21T15:35:01.466Z,7.83
2018-07-21T15:37:29.594Z,7.83
2018-07-21T15:39:57.821Z,8.47
2018-07-21T15:42:25.940Z,8.63
2018-07-21T15:44:54.094Z,8.97
2018-07-21T15:47:22.236Z,9.87
2018-07-21T15:49:50.383Z,9.13
2018-07-21T15:52:18.526Z,9.70
2018-07-21T15:54:46.720Z,9.20
2018-07-21T15:57:14.835Z,9.03
2018-07-21T15:59:42.971Z,7.97
2018-07-21T16:02:11.122Z,8.70
2018-07-21T16:04:39.345Z,9.03
2018-07-21T16:07:07.450Z,8.73
2018-07-21T16:09:35.683Z,10.63
2018-07-21T16:12:03.776Z,11.10
2018-07-21T16:14:31.915Z,11.53
2018-07-21T16:17:00.106Z,11.00
2018-07-21T16:19:28.239Z,15.10
2018-07-21T16:21:56.400Z,15.90
2018-07-21T16:24:24.533Z,20.73
2018-07-21T16:26:52.678Z,10.73
2018-07-21T16:29:21.622Z,12.23
2018-07-21T16:31:49.967Z,10.60
2018-07-21T16:34:18.097Z,13.90
2018-07-21T16:36:46.054Z,16.93
2018-07-21T16:39:13.947Z,22.10
2018-07-21T16:41:42.100Z,21.57
2018-07-21T16:44:10.042Z,21.93
2018-07-21T16:46:38.183Z,21.50
2018-07-21T16:49:06.315Z,19.43
2018-07-21T16:51:34.218Z,16.20
2018-07-21T16:54:02.346Z,15.40
2018-07-21T16:56:30.302Z,17.00
2018-07-21T16:58:58.579Z,14.83
2018-07-21T17:01:26.763Z,14.13
2018-07-21T17:03:54.737Z,14.13
2018-07-21T17:06:22.682Z,16.10
2018-07-21T17:08:50.826Z,15.07
2018-07-21T17:11:18.978Z,16.53
2018-07-21T17:13:47.115Z,17.17
2018-07-21T17:16:15.074Z,16.20
2018-07-21T17:18:42.992Z,19.50
2018-07-21T17:21:11.176Z,18.10
2018-07-21T17:23:39.291Z,19.47
2018-07-21T17:26:07.431Z,15.33
2018-07-21T17:28:35.582Z,14.13
2018-07-21T17:31:03.731Z,14.73
2018-07-21T17:33:31.875Z,14.00
2018-07-21T17:36:00.012Z,13.53
2018-07-21T17:38:28.143Z,15.07
2018-07-21T17:40:56.298Z,13.83
2018-07-21T17:43:24.242Z,14.20
2018-07-21T17:45:52.419Z,13.53
2018-07-21T17:48:20.555Z,14.27
2018-07-21T17:50:48.688Z,14.43
2018-07-21T17:53:16.652Z,13.13
2018-07-21T17:55:44.598Z,13.63
2018-07-21T17:58:12.812Z,15.03
2018-07-21T18:00:40.899Z,17.50
2018-07-21T18:03:09.059Z,18.43
2018-07-21T18:05:37.178Z,17.80
2018-07-21T18:08:05.338Z,18.80
2018-07-21T18:10:33.446Z,17.70
2018-07-21T18:13:01.355Z,16.30
2018-07-21T18:15:29.494Z,16.03
2018-07-21T18:17:57.466Z,17.00
2018-07-21T18:20:25.411Z,16.30
2018-07-21T18:22:53.550Z,15.93
2018-07-21T18:25:21.777Z,15.97
2018-07-21T18:27:49.851Z,16.20
2018-07-21T18:30:17.794Z,16.80
2018-07-21T18:32:45.998Z,16.13
2018-07-21T18:35:14.152Z,17.20
2018-07-21T18:37:42.057Z,17.60
2018-07-21T18:40:10.277Z,17.43
2018-07-21T18:42:38.130Z,16.57
2018-07-21T18:45:06.296Z,15.87
2018-07-21T18:47:34.453Z,16.40
2018-07-21T18:50:02.586Z,16.43
2018-07-21T18:52:30.727Z,15.33
2018-07-21T18:54:58.879Z,16.50
2018-07-21T18:57:27.038Z,16.63
2018-07-21T18:59:56.068Z,17.50
2018-07-21T19:02:24.041Z,16.97
2018-07-21T19:04:52.188Z,17.73
2018-07-21T19:07:20.338Z,16.47
2018-07-21T19:09:48.466Z,17.87
2018-07-21T19:12:22.048Z,17.03
2018-07-21T19:14:50.219Z,17.90
2018-07-21T19:17:18.370Z,19.93
2018-07-21T19:19:52.014Z,19.40
2018-07-21T19:22:20.159Z,18.17
2018-07-21T19:24:48.295Z,17.83
2018-07-21T19:27:22.004Z,17.50
2018-07-21T19:29:50.144Z,17.00
2018-07-21T19:32:23.523Z,18.50
2018-07-21T19:34:51.701Z,17.40
2018-07-21T19:37:25.336Z,18.33
2018-07-21T19:39:53.274Z,17.23
2018-07-21T19:42:21.419Z,18.13
2018-07-21T19:44:49.560Z,19.27
2018-07-21T19:47:17.740Z,19.27
2018-07-21T19:49:45.866Z,19.37
2018-07-21T19:52:14.007Z,20.20
2018-07-21T19:54:42.136Z,20.07
2018-07-21T19:57:10.298Z,19.73
2018-07-21T19:59:38.207Z,18.77
2018-07-21T20:02:06.375Z,19.17
2018-07-21T20:04:34.527Z,20.07
2018-07-21T20:07:02.675Z,19.03
2018-07-21T20:09:37.630Z,18.70
2018-07-21T20:12:05.755Z,19.40
2018-07-21T20:14:33.902Z,18.13
2018-07-21T20:17:02.040Z,19.07
2018-07-21T20:19:29.930Z,18.63
2018-07-21T20:21:58.062Z,17.90
2018-07-21T20:24:25.980Z,18.73
2018-07-21T20:26:54.136Z,18.57
2018-07-21T20:29:22.319Z,18.13
2018-07-21T20:31:50.475Z,17.93
2018-07-21T20:34:18.612Z,18.07
2018-07-21T20:36:46.750Z,17.50
2018-07-21T20:39:14.889Z,17.63
2018-07-21T20:41:42.805Z,17.50
2018-07-21T20:44:10.962Z,16.00
2018-07-21T20:46:39.099Z,17.40
2018-07-21T20:49:07.060Z,16.30
2018-07-21T20:51:35.007Z,11.50
2018-07-21T20:54:03.181Z,12.87
2018-07-21T20:56:31.308Z,13.13
2018-07-21T20:58:59.463Z,12.67
2018-07-21T21:01:27.612Z,13.67
2018-07-21T21:03:55.755Z,13.53
2018-07-21T21:06:23.927Z,13.90
2018-07-21T21:08:52.023Z,13.97
2018-07-21T21:11:20.218Z,13.93
2018-07-21T21:13:48.190Z,13.80
2018-07-21T21:16:16.323Z,14.00
2018-07-21T21:18:44.526Z,14.23
2018-07-21T21:21:12.655Z,14.80
2018-07-21T21:23:40.786Z,13.60
2018-07-21T21:26:08.943Z,13.73
2018-07-21T21:28:37.130Z,12.70
2018-07-21T21:31:05.142Z,12.77
2018-07-21T21:33:33.320Z,12.43
2018-07-21T21:36:01.435Z,12.43
2018-07-21T21:38:29.343Z,11.90
2018-07-21T21:40:57.464Z,11.77
2018-07-21T21:43:25.615Z,12.93
2018-07-21T21:45:53.782Z,12.17
2018-07-21T21:48:21.944Z,12.70
2018-07-21T21:50:50.063Z,12.63
2018-07-21T21:53:18.287Z,12.40
2018-07-21T21:55:46.452Z,11.17
2018-07-21T21:58:14.596Z,11.67
2018-07-21T22:01:18.667Z,11.20
2018-07-21T22:03:46.839Z,11.87
2018-07-21T22:06:14.969Z,12.23
2018-07-21T22:08:42.931Z,11.63
2018-07-21T22:11:10.870Z,12.63
2018-07-21T22:13:39.032Z,11.60
2018-07-21T22:16:07.192Z,12.23
2018-07-21T22:18:35.351Z,10.80
2018-07-21T22:21:03.482Z,10.77
2018-07-21T22:23:31.631Z,11.50
2018-07-21T22:25:59.769Z,10.43
2018-07-21T22:28:27.891Z,11.03
2018-07-21T22:30:56.036Z,10.33
2018-07-21T22:33:24.179Z,11.30
2018-07-21T22:35:52.323Z,10.70
2018-07-21T22:38:20.270Z,10.73
2018-07-21T22:40:48.434Z,10.70
2018-07-21T22:43:16.608Z,11.57
2018-07-21T22:45:44.726Z,10.87
2018-07-21T22:48:12.878Z,10.60
2018-07-21T22:50:40.788Z,10.70
2018-07-21T22:53:08.932Z,11.33
2018-07-21T22:55:37.074Z,11.40
2018-07-21T22:58:05.218Z,11.70
2018-07-21T23:00:33.379Z,10.80
2018-07-21T23:03:01.515Z,11.67
2018-07-21T23:05:29.470Z,11.97
2018-07-21T23:07:57.592Z,11.73
2018-07-21T23:10:25.751Z,12.03
2018-07-21T23:12:53.939Z,11.30
2018-07-21T23:15:22.073Z,12.10
2018-07-21T23:17:50.253Z,12.30
2018-07-21T23:20:18.385Z,12.00
2018-07-21T23:22:46.532Z,12.00
2018-07-21T23:25:14.659Z,12.30
2018-07-21T23:27:42.614Z,12.60
2018-07-21T23:30:10.794Z,11.50
2018-07-21T23:32:38.950Z,12.87
2018-07-21T23:35:07.088Z,12.20
2018-07-21T23:37:36.248Z,12.97
2018-07-21T23:40:04.415Z,13.73
2018-07-21T23:42:32.583Z,12.63
2018-07-21T23:45:00.776Z,12.97
2018-07-21T23:47:28.719Z,13.63
2018-07-21T23:49:56.872Z,12.23
2018-07-21T23:52:25.014Z,12.53
2018-07-21T23:54:53.243Z,13.47
2018-07-21T23:57:21.516Z,13.17
2018-07-21T23:59:49.679Z,13.23
